createdAt,value
2023-02-09T00:01:35.121Z,100.00
2023-02-09T00:04:02.820Z,100.00
2023-02-09T00:06:30.433Z,100.00
2023-02-09T00:08:58.991Z,100.00
2023-02-09T00:11:48.393Z,100.00
2023-02-09T00:14:18.212Z,100.00
2023-02-09T00:16:47.055Z,100.00
2023-02-09T00:19:15.156Z,100.00
2023-02-09T00:21:42.747Z,100.00
2023-02-09T00:24:10.720Z,100.00
2023-02-09T00:26:38.691Z,100.00
2023-02-09T00:29:06.712Z,100.00
2023-02-09T00:31:34.278Z,100.00
2023-02-09T00:34:02.097Z,100.00
2023-02-09T00:36:29.593Z,100.00
2023-02-09T00:38:56.971Z,100.00
2023-02-09T00:41:42.866Z,100.00
2023-02-09T00:44:11.409Z,100.00
2023-02-09T00:46:38.806Z,100.00
2023-02-09T00:49:06.325Z,100.00
2023-02-09T00:51:33.721Z,100.00
2023-02-09T00:54:03.303Z,100.00
2023-02-09T00:56:30.600Z,100.00
2023-02-09T00:58:57.853Z,100.00
2023-02-09T01:01:25.820Z,100.00
2023-02-09T01:03:53.687Z,100.00
2023-02-09T01:06:21.321Z,100.00
2023-02-09T01:08:48.652Z,100.00
2023-02-09T01:11:16.673Z,100.00
2023-02-09T01:13:44.387Z,100.00
2023-02-09T01:16:15.320Z,100.00
2023-02-09T01:18:43.408Z,100.00
2023-02-09T01:21:21.875Z,100.00
2023-02-09T01:23:49.373Z,100.00
2023-02-09T01:26:17.619Z,100.00
2023-02-09T01:28:44.914Z,100.00
2023-02-09T01:31:29.164Z,100.00
2023-02-09T01:33:58.164Z,100.00
2023-02-09T01:36:28.498Z,100.00
2023-02-09T01:38:57.397Z,100.00
2023-02-09T01:41:25.044Z,100.00
2023-02-09T01:43:55.589Z,100.00
2023-02-09T01:46:26.106Z,100.00
2023-02-09T01:49:03.460Z,100.00
2023-02-09T01:51:35.694Z,100.00
2023-02-09T01:54:10.840Z,100.00
2023-02-09T01:56:40.099Z,100.00
2023-02-09T01:59:08.208Z,100.00
2023-02-09T02:01:38.152Z,100.00
2023-02-09T02:04:06.302Z,100.00
2023-02-09T02:06:33.871Z,100.00
2023-02-09T02:09:14.616Z,100.00
2023-02-09T02:11:46.152Z,100.00
2023-02-09T02:14:33.341Z,100.00
2023-02-09T02:17:39.419Z,100.00
2023-02-09T02:20:51.418Z,100.00
2023-02-09T02:23:43.080Z,100.00
2023-02-09T02:26:39.092Z,100.00
2023-02-09T02:29:35.803Z,100.00
2023-02-09T02:32:30.417Z,100.00
2023-02-09T02:35:06.886Z,100.00
2023-02-09T02:38:05.938Z,100.00
2023-02-09T02:40:54.236Z,100.00
2023-02-09T02:43:37.961Z,100.00
2023-02-09T02:46:15.790Z,100.00
2023-02-09T02:49:04.042Z,100.00
2023-02-09T02:51:40.247Z,100.00
2023-02-09T02:54:17.057Z,100.00
2023-02-09T02:56:50.006Z,100.00
2023-02-09T02:59:23.336Z,100.00
2023-02-09T03:01:55.463Z,100.00
2023-02-09T03:04:23.362Z,100.00
2023-02-09T03:06:50.653Z,100.00
2023-02-09T03:09:18.610Z,100.00
2023-02-09T03:11:48.379Z,100.00
2023-02-09T03:14:48.224Z,100.00
2023-02-09T03:17:37.150Z,100.00
2023-02-09T03:20:17.233Z,100.00
2023-02-09T03:22:52.647Z,100.00
2023-02-09T03:25:35.402Z,100.00
2023-02-09T03:28:08.375Z,100.00
2023-02-09T03:30:37.114Z,100.00
2023-02-09T03:33:05.325Z,100.00
2023-02-09T03:35:39.223Z,100.00
2023-02-09T03:38:07.136Z,100.00
2023-02-09T03:40:35.090Z,100.00
2023-02-09T03:43:02.552Z,100.00
2023-02-09T03:45:29.817Z,100.00
2023-02-09T03:47:57.050Z,100.00
2023-02-09T03:50:24.463Z,100.00
2023-02-09T03:52:51.693Z,100.00
2023-02-09T03:55:19.014Z,100.00
2023-02-09T03:57:46.255Z,100.00
2023-02-09T04:00:14.236Z,100.00
2023-02-09T04:02:43.491Z,100.00
2023-02-09T04:05:10.969Z,100.00
2023-02-09T04:07:38.641Z,100.00
2023-02-09T04:10:06.626Z,100.00
2023-02-09T04:12:33.907Z,100.00
2023-02-09T04:15:01.137Z,100.00
2023-02-09T04:17:28.396Z,100.00
2023-02-09T04:19:57.593Z,100.00
2023-02-09T04:22:24.893Z,100.00
2023-02-09T04:24:52.160Z,100.00
2023-02-09T04:27:19.434Z,100.00
2023-02-09T04:29:46.684Z,100.00
2023-02-09T04:32:13.998Z,100.00
2023-02-09T04:34:41.343Z,100.00
2023-02-09T04:37:08.669Z,100.00
2023-02-09T04:39:35.998Z,100.00
2023-02-09T04:42:03.250Z,100.00
2023-02-09T04:44:30.599Z,100.00
2023-02-09T04:46:57.852Z,100.00
2023-02-09T04:49:25.107Z,100.00
2023-02-09T04:51:52.365Z,100.00
2023-02-09T04:54:19.618Z,100.00
2023-02-09T04:56:46.904Z,100.00
2023-02-09T04:59:46.616Z,100.00
2023-02-09T05:02:13.951Z,100.00
2023-02-09T05:04:41.272Z,100.00
2023-02-09T05:07:08.598Z,100.00
2023-02-09T05:09:35.863Z,100.00
2023-02-09T05:12:03.489Z,100.00
2023-02-09T05:14:30.797Z,100.00
2023-02-09T05:16:58.323Z,100.00
2023-02-09T05:19:25.607Z,100.00
2023-02-09T05:21:52.878Z,100.00
2023-02-09T05:24:20.285Z,100.00
2023-02-09T05:26:47.583Z,100.00
2023-02-09T05:29:14.878Z,100.00
2023-02-09T05:31:42.568Z,100.00
2023-02-09T05:34:10.107Z,100.00
2023-02-09T05:36:37.414Z,100.00
2023-02-09T05:39:04.677Z,100.00
2023-02-09T05:41:50.564Z,100.00
2023-02-09T05:44:17.836Z,100.00
2023-02-09T05:46:45.138Z,100.00
2023-02-09T05:49:12.477Z,100.00
2023-02-09T05:51:39.740Z,100.00
2023-02-09T05:54:07.131Z,100.00
2023-02-09T05:56:35.568Z,100.00
2023-02-09T05:59:04.640Z,100.00
2023-02-09T06:01:32.170Z,100.00
2023-02-09T06:03:59.437Z,100.00
2023-02-09T06:06:26.738Z,100.00
2023-02-09T06:08:54.061Z,100.00
2023-02-09T06:11:21.393Z,100.00
2023-02-09T06:13:49.179Z,100.00
2023-02-09T06:16:16.433Z,100.00
2023-02-09T06:18:43.724Z,100.00
2023-02-09T06:21:12.022Z,100.00
2023-02-09T06:23:39.559Z,100.00
2023-02-09T06:26:12.992Z,100.00
2023-02-09T06:28:40.559Z,100.00
2023-02-09T06:31:08.595Z,100.00
2023-02-09T06:33:36.982Z,100.00
2023-02-09T06:36:05.884Z,100.00
2023-02-09T06:38:34.655Z,100.00
2023-02-09T06:41:01.989Z,100.00
2023-02-09T06:43:29.449Z,100.00
2023-02-09T06:45:57.247Z,100.00
2023-02-09T06:48:24.575Z,100.00
2023-02-09T06:50:52.282Z,100.00
2023-02-09T06:53:19.744Z,100.00
2023-02-09T06:55:47.106Z,100.00
2023-02-09T06:58:14.353Z,100.00
2023-02-09T07:00:41.592Z,100.00
2023-02-09T07:03:08.832Z,100.00
2023-02-09T07:05:36.289Z,100.00
2023-02-09T07:08:03.645Z,100.00
2023-02-09T07:10:30.996Z,100.00
2023-02-09T07:12:58.961Z,100.00
2023-02-09T07:15:26.253Z,100.00
2023-02-09T07:17:53.491Z,100.00
2023-02-09T07:20:20.852Z,100.00
2023-02-09T07:22:48.192Z,100.00
2023-02-09T07:25:15.465Z,100.00
2023-02-09T07:27:45.806Z,100.00
2023-02-09T07:30:13.560Z,100.00
2023-02-09T07:32:42.089Z,100.00
2023-02-09T07:35:09.380Z,100.00
2023-02-09T07:37:37.080Z,100.00
2023-02-09T07:40:04.549Z,100.00
2023-02-09T07:42:31.813Z,100.00
2023-02-09T07:45:02.657Z,100.00
2023-02-09T07:47:29.983Z,100.00
2023-02-09T07:49:57.267Z,100.00
2023-02-09T07:52:24.814Z,100.00
2023-02-09T07:54:52.110Z,100.00
2023-02-09T07:57:19.459Z,100.00
2023-02-09T07:59:46.715Z,100.00
2023-02-09T08:02:18.924Z,100.00
2023-02-09T08:04:46.307Z,100.00
2023-02-09T08:07:13.699Z,100.00
2023-02-09T08:09:44.873Z,100.00
2023-02-09T08:12:12.310Z,100.00
2023-02-09T08:14:44.302Z,100.00
2023-02-09T08:17:20.738Z,100.00
2023-02-09T08:20:00.986Z,100.00
2023-02-09T08:22:31.543Z,100.00
2023-02-09T08:25:00.974Z,100.00
2023-02-09T08:27:28.688Z,100.00
2023-02-09T08:29:55.966Z,100.00
2023-02-09T08:32:23.274Z,100.00
2023-02-09T08:34:50.535Z,100.00
2023-02-09T08:37:17.821Z,100.00
2023-02-09T08:39:45.581Z,100.00
2023-02-09T08:42:12.831Z,100.00
2023-02-09T08:44:40.134Z,100.00
2023-02-09T08:47:08.687Z,100.00
2023-02-09T08:49:36.579Z,100.00
2023-02-09T08:52:04.194Z,100.00
2023-02-09T08:54:31.467Z,100.00
2023-02-09T08:56:58.912Z,100.00
2023-02-09T08:59:26.604Z,100.00
2023-02-09T09:01:53.933Z,100.00
2023-02-09T09:04:21.757Z,100.00
2023-02-09T09:06:49.318Z,100.00
2023-02-09T09:09:16.570Z,100.00
2023-02-09T09:11:43.833Z,100.00
2023-02-09T09:14:11.117Z,100.00
2023-02-09T09:16:38.443Z,100.00
2023-02-09T09:19:05.776Z,100.00
2023-02-09T09:21:33.717Z,100.00
2023-02-09T09:24:00.963Z,100.00
2023-02-09T09:26:28.491Z,100.00
2023-02-09T09:28:55.806Z,100.00
2023-02-09T09:31:23.469Z,100.00
2023-02-09T09:33:50.811Z,100.00
2023-02-09T09:36:19.225Z,100.00
2023-02-09T09:38:46.550Z,100.00
2023-02-09T09:41:33.051Z,100.00
2023-02-09T09:44:01.379Z,100.00
2023-02-09T09:46:42.098Z,100.00
2023-02-09T09:49:23.307Z,100.00
2023-02-09T09:52:00.483Z,100.00
2023-02-09T09:54:30.350Z,100.00
2023-02-09T09:56:57.989Z,100.00
2023-02-09T09:59:30.742Z,100.00
2023-02-09T10:02:00.464Z,100.00
2023-02-09T10:04:29.384Z,100.00
2023-02-09T10:07:10.580Z,100.00
2023-02-09T10:09:56.717Z,100.00
2023-02-09T10:12:38.144Z,100.00
2023-02-09T10:15:33.300Z,100.00
2023-02-09T10:18:01.404Z,100.00
2023-02-09T10:20:50.802Z,100.00
2023-02-09T10:23:21.125Z,100.00
2023-02-09T10:26:08.240Z,100.00
2023-02-09T10:28:42.732Z,100.00
2023-02-09T10:31:26.274Z,100.00
2023-02-09T10:34:14.238Z,100.00
2023-02-09T10:36:49.130Z,100.00
2023-02-09T10:39:21.692Z,100.00
2023-02-09T10:41:52.642Z,100.00
2023-02-09T10:44:27.768Z,100.00
2023-02-09T10:47:19.734Z,100.00
2023-02-09T10:50:11.400Z,100.00
2023-02-09T10:52:45.227Z,100.00
2023-02-09T10:55:25.895Z,100.00
2023-02-09T10:58:14.541Z,100.00
2023-02-09T11:00:54.009Z,100.00
2023-02-09T11:03:27.077Z,100.00
2023-02-09T11:06:15.838Z,100.00
2023-02-09T11:08:56.741Z,100.00
2023-02-09T11:11:39.124Z,100.00
2023-02-09T11:14:15.407Z,100.00
2023-02-09T11:16:48.051Z,100.00
2023-02-09T11:19:40.112Z,100.00
2023-02-09T11:22:14.960Z,100.00
2023-02-09T11:25:05.115Z,100.00
2023-02-09T11:28:23.226Z,100.00
2023-02-09T11:31:21.799Z,100.00
2023-02-09T11:33:52.914Z,100.00
2023-02-09T11:36:44.344Z,100.00
2023-02-09T11:39:24.033Z,100.00
2023-02-09T11:42:17.622Z,100.00
2023-02-09T11:45:01.016Z,100.00
2023-02-09T11:47:56.129Z,100.00
2023-02-09T11:50:48.184Z,100.00
2023-02-09T11:53:28.461Z,77.84
2023-02-09T11:56:00.461Z,58.10
2023-02-09T11:58:57.532Z,51.90
2023-02-09T12:01:52.061Z,48.90
2023-02-09T12:04:41.292Z,45.68
2023-02-09T12:07:36.325Z,43.44
2023-02-09T12:10:30.878Z,42.67
2023-02-09T12:13:19.574Z,41.15
2023-02-09T12:15:53.920Z,42.09
2023-02-09T12:18:30.936Z,41.74
2023-02-09T12:21:03.682Z,42.47
2023-02-09T12:23:38.544Z,41.55
2023-02-09T12:26:11.842Z,46.92
2023-02-09T12:29:03.524Z,48.17
2023-02-09T12:31:52.590Z,44.35
2023-02-09T12:34:43.405Z,44.10
2023-02-09T12:37:13.755Z,39.83
2023-02-09T12:40:18.201Z,39.64
2023-02-09T12:42:51.473Z,40.20
2023-02-09T12:45:36.834Z,38.90
2023-02-09T12:48:10.101Z,38.72
2023-02-09T12:50:43.592Z,46.00
2023-02-09T12:53:22.789Z,49.14
2023-02-09T12:56:01.050Z,46.99
2023-02-09T12:59:06.572Z,46.60
2023-02-09T13:02:08.063Z,47.44
2023-02-09T13:04:49.222Z,51.61
2023-02-09T13:07:44.130Z,51.44
2023-02-09T13:10:30.923Z,56.27
2023-02-09T13:13:13.416Z,59.78
2023-02-09T13:15:59.026Z,49.50
2023-02-09T13:18:32.350Z,45.69
2023-02-09T13:21:20.987Z,46.18
2023-02-09T13:24:10.755Z,42.47
2023-02-09T13:26:54.776Z,44.39
2023-02-09T13:29:26.886Z,42.44
2023-02-09T13:32:18.433Z,42.17
2023-02-09T13:34:58.694Z,41.12
2023-02-09T13:37:48.126Z,43.04
2023-02-09T13:40:19.698Z,44.23
2023-02-09T13:43:13.199Z,49.23
2023-02-09T13:45:51.594Z,51.10
2023-02-09T13:48:38.860Z,42.13
2023-02-09T13:51:18.899Z,42.90
2023-02-09T13:54:00.724Z,37.60
2023-02-09T13:56:28.602Z,40.09
2023-02-09T13:58:56.601Z,41.43
2023-02-09T14:01:30.489Z,41.54
2023-02-09T14:04:28.888Z,51.15
2023-02-09T14:07:04.732Z,53.59
2023-02-09T14:09:49.560Z,54.03
2023-02-09T14:12:51.537Z,46.92
2023-02-09T14:15:51.672Z,44.60
2023-02-09T14:18:23.122Z,51.89
2023-02-09T14:21:02.864Z,53.59
2023-02-09T14:23:34.899Z,52.11
2023-02-09T14:26:25.625Z,45.31
2023-02-09T14:29:04.212Z,47.74
2023-02-09T14:31:33.177Z,48.48
2023-02-09T14:34:00.602Z,46.20
2023-02-09T14:36:35.507Z,49.78
2023-02-09T14:39:16.679Z,47.71
2023-02-09T14:42:11.389Z,49.39
2023-02-09T14:44:57.334Z,51.73
2023-02-09T14:47:40.990Z,53.73
2023-02-09T14:50:14.196Z,59.61
2023-02-09T14:52:46.734Z,62.72
2023-02-09T14:55:28.640Z,71.62
2023-02-09T14:57:55.933Z,77.66
2023-02-09T15:00:30.279Z,93.49
2023-02-09T15:03:00.126Z,74.19
2023-02-09T15:05:27.657Z,84.20
2023-02-09T15:07:59.453Z,82.74
2023-02-09T15:10:30.184Z,81.19
2023-02-09T15:12:58.433Z,99.77
2023-02-09T15:15:26.664Z,96.42
2023-02-09T15:17:55.427Z,99.18
2023-02-09T15:20:28.696Z,75.91
2023-02-09T15:22:56.399Z,72.13
2023-02-09T15:25:25.063Z,75.77
2023-02-09T15:27:57.660Z,75.82
2023-02-09T15:30:34.445Z,75.11
2023-02-09T15:33:01.989Z,76.07
2023-02-09T15:35:29.826Z,87.09
2023-02-09T15:38:00.131Z,86.76
2023-02-09T15:40:51.025Z,79.29
2023-02-09T15:43:39.578Z,79.68
2023-02-09T15:46:07.464Z,79.93
2023-02-09T15:48:35.080Z,100.00
2023-02-09T15:51:02.649Z,100.00
2023-02-09T15:53:31.990Z,100.00
2023-02-09T15:55:59.369Z,100.00
2023-02-09T15:58:35.378Z,100.00
2023-02-09T16:01:05.225Z,100.00
2023-02-09T16:03:32.919Z,100.00
2023-02-09T16:06:03.124Z,100.00
2023-02-09T16:08:35.564Z,100.00
2023-02-09T16:11:02.708Z,100.00
2023-02-09T16:13:29.999Z,98.12
2023-02-09T16:16:08.000Z,100.00
2023-02-09T16:18:42.402Z,100.00
2023-02-09T16:21:25.534Z,100.00
2023-02-09T16:23:56.347Z,100.00
2023-02-09T16:26:24.406Z,100.00
2023-02-09T16:28:52.302Z,100.00
2023-02-09T16:31:19.866Z,100.00
2023-02-09T16:33:47.788Z,100.00
2023-02-09T16:36:17.883Z,100.00
2023-02-09T16:38:45.748Z,100.00
2023-02-09T16:41:54.414Z,100.00
2023-02-09T16:44:24.069Z,100.00
2023-02-09T16:46:55.982Z,100.00
2023-02-09T16:49:35.525Z,100.00
2023-02-09T16:52:20.821Z,100.00
2023-02-09T16:54:53.486Z,100.00
2023-02-09T16:57:25.302Z,100.00
2023-02-09T16:59:53.888Z,100.00
2023-02-09T17:02:28.960Z,100.00
2023-02-09T17:04:57.952Z,100.00
2023-02-09T17:07:30.474Z,100.00
2023-02-09T17:10:00.065Z,100.00
2023-02-09T17:12:27.592Z,100.00
2023-02-09T17:14:54.981Z,100.00
2023-02-09T17:17:22.905Z,100.00
2023-02-09T17:19:51.153Z,100.00
2023-02-09T17:22:19.209Z,100.00
2023-02-09T17:24:49.934Z,100.00
2023-02-09T17:27:17.508Z,100.00
2023-02-09T17:29:44.880Z,100.00
2023-02-09T17:32:15.309Z,100.00
2023-02-09T17:34:43.256Z,100.00
2023-02-09T17:37:14.491Z,100.00
2023-02-09T17:39:41.919Z,100.00
2023-02-09T17:42:21.736Z,100.00
2023-02-09T17:44:50.714Z,100.00
2023-02-09T17:47:19.830Z,100.00
2023-02-09T17:49:47.179Z,100.00
2023-02-09T17:52:19.555Z,100.00
2023-02-09T17:54:46.491Z,100.00
2023-02-09T17:57:16.205Z,100.00
2023-02-09T17:59:43.969Z,100.00
2023-02-09T18:02:19.691Z,100.00
2023-02-09T18:04:47.118Z,100.00
2023-02-09T18:07:20.087Z,100.00
2023-02-09T18:09:47.534Z,100.00
2023-02-09T18:12:20.876Z,100.00
2023-02-09T18:14:48.462Z,100.00
2023-02-09T18:17:16.561Z,100.00
2023-02-09T18:19:43.810Z,100.00
2023-02-09T18:22:16.848Z,100.00
2023-02-09T18:24:44.239Z,100.00
2023-02-09T18:27:18.454Z,100.00
2023-02-09T18:29:45.882Z,100.00
2023-02-09T18:32:16.785Z,100.00
2023-02-09T18:34:44.269Z,100.00
2023-02-09T18:37:11.579Z,100.00
2023-02-09T18:39:46.205Z,100.00
2023-02-09T18:42:15.294Z,100.00
2023-02-09T18:44:43.015Z,100.00
2023-02-09T18:47:10.804Z,100.00
2023-02-09T18:49:38.628Z,100.00
2023-02-09T18:52:06.295Z,100.00
2023-02-09T18:54:33.641Z,100.00
2023-02-09T18:57:01.045Z,100.00
2023-02-09T18:59:32.535Z,100.00
2023-02-09T19:02:00.165Z,100.00
2023-02-09T19:04:27.516Z,100.00
2023-02-09T19:06:54.808Z,100.00
2023-02-09T19:09:22.256Z,100.00
2023-02-09T19:11:49.501Z,100.00
2023-02-09T19:14:35.455Z,100.00
2023-02-09T19:17:03.134Z,100.00
2023-02-09T19:19:30.461Z,100.00
2023-02-09T19:22:00.054Z,100.00
2023-02-09T19:24:28.263Z,100.00
2023-02-09T19:26:55.967Z,100.00
2023-02-09T19:29:28.563Z,100.00
2023-02-09T19:31:56.217Z,100.00
2023-02-09T19:34:24.220Z,100.00
2023-02-09T19:36:53.790Z,100.00
2023-02-09T19:39:21.095Z,100.00
2023-02-09T19:41:49.075Z,100.00
2023-02-09T19:44:16.527Z,100.00
2023-02-09T19:46:43.958Z,100.00
2023-02-09T19:49:11.292Z,100.00
2023-02-09T19:51:38.680Z,100.00
2023-02-09T19:54:06.248Z,100.00
2023-02-09T19:56:33.653Z,100.00
2023-02-09T19:59:01.316Z,100.00
2023-02-09T20:01:29.610Z,100.00
2023-02-09T20:03:57.446Z,100.00
2023-02-09T20:06:25.026Z,100.00
2023-02-09T20:08:52.276Z,100.00
2023-02-09T20:11:20.935Z,100.00
2023-02-09T20:13:52.949Z,100.00
2023-02-09T20:16:23.142Z,100.00
2023-02-09T20:18:51.071Z,100.00
2023-02-09T20:21:19.930Z,100.00
2023-02-09T20:23:47.951Z,100.00
2023-02-09T20:26:18.551Z,100.00
2023-02-09T20:28:45.893Z,100.00
2023-02-09T20:31:15.667Z,100.00
2023-02-09T20:33:43.404Z,100.00
2023-02-09T20:36:10.989Z,100.00
2023-02-09T20:38:38.444Z,100.00
2023-02-09T20:41:23.462Z,100.00
2023-02-09T20:44:09.286Z,100.00
2023-02-09T20:46:57.632Z,100.00
2023-02-09T20:49:30.993Z,100.00
2023-02-09T20:51:59.080Z,100.00
2023-02-09T20:54:27.154Z,100.00
2023-02-09T20:56:54.456Z,100.00
2023-02-09T20:59:21.744Z,100.00
2023-02-09T21:01:49.118Z,100.00
2023-02-09T21:04:16.523Z,100.00
2023-02-09T21:06:47.398Z,100.00
2023-02-09T21:09:26.147Z,100.00
2023-02-09T21:11:54.645Z,100.00
2023-02-09T21:14:32.632Z,100.00
2023-02-09T21:17:08.120Z,100.00
2023-02-09T21:19:35.576Z,100.00
2023-02-09T21:22:02.879Z,100.00
2023-02-09T21:24:30.231Z,100.00
2023-02-09T21:26:57.598Z,100.00
2023-02-09T21:29:25.093Z,100.00
2023-02-09T21:31:52.663Z,100.00
2023-02-09T21:34:19.974Z,100.00
2023-02-09T21:36:47.390Z,100.00
2023-02-09T21:39:15.170Z,100.00
2023-02-09T21:42:01.075Z,100.00
2023-02-09T21:44:28.518Z,100.00
2023-02-09T21:46:55.917Z,100.00
2023-02-09T21:49:23.434Z,100.00
2023-02-09T21:51:50.765Z,100.00
2023-02-09T21:54:18.449Z,100.00
2023-02-09T21:56:45.972Z,100.00
2023-02-09T21:59:13.229Z,100.00
2023-02-09T22:01:43.996Z,100.00
2023-02-09T22:04:11.393Z,100.00
2023-02-09T22:06:38.726Z,100.00
2023-02-09T22:09:06.332Z,100.00
2023-02-09T22:11:33.647Z,100.00
2023-02-09T22:14:00.939Z,100.00
2023-02-09T22:16:29.355Z,100.00
2023-02-09T22:18:57.252Z,100.00
2023-02-09T22:21:24.523Z,100.00
2023-02-09T22:23:54.674Z,100.00
2023-02-09T22:26:22.212Z,100.00
2023-02-09T22:28:49.494Z,100.00
2023-02-09T22:31:18.978Z,100.00
2023-02-09T22:33:46.421Z,100.00
2023-02-09T22:36:17.932Z,100.00
2023-02-09T22:38:45.534Z,100.00
2023-02-09T22:41:22.445Z,100.00
2023-02-09T22:43:54.596Z,100.00
2023-02-09T22:46:27.674Z,100.00
2023-02-09T22:48:57.767Z,100.00
2023-02-09T22:51:28.314Z,100.00
2023-02-09T22:53:57.114Z,100.00
2023-02-09T22:56:24.825Z,100.00
2023-02-09T22:58:56.570Z,100.00
2023-02-09T23:01:24.006Z,100.00
2023-02-09T23:03:51.732Z,100.00
2023-02-09T23:06:23.876Z,100.00
2023-02-09T23:09:00.023Z,100.00
2023-02-09T23:11:28.292Z,100.00
2023-02-09T23:14:11.605Z,100.00
2023-02-09T23:16:41.159Z,100.00
2023-02-09T23:19:13.648Z,100.00
2023-02-09T23:21:43.749Z,100.00
2023-02-09T23:24:12.338Z,100.00
2023-02-09T23:26:39.706Z,100.00
2023-02-09T23:29:09.658Z,100.00
2023-02-09T23:31:37.803Z,100.00
2023-02-09T23:34:05.134Z,100.00
2023-02-09T23:36:33.896Z,100.00
2023-02-09T23:39:04.758Z,100.00
2023-02-09T23:41:35.199Z,100.00
2023-02-09T23:44:03.307Z,100.00
2023-02-09T23:46:30.697Z,100.00
2023-02-09T23:48:58.380Z,100.00
2023-02-09T23:51:33.776Z,100.00
2023-02-09T23:54:04.566Z,100.00
2023-02-09T23:56:36.864Z,100.00
2023-02-09T23:59:05.107Z,100.00
